Time;durP1;ratioP1;P1;durP2;ratioP2;P2;SDS_P1;SDS_P2;PMS_P1;PMS_P2;Temp;Humidity;BMP_temperature;BMP_pressure;BME280_temperature;BME280_humidity;BME280_pressure;Samples;Min_cycle;Max_cycle;Signal;HPM_P1;HPM_P2
2023/10/01 00:00:21;;;;;;;6.07;4.70;;;19.20;94.40;;;;;;4964913;28;20506;-72
2023/10/01 00:02:51;;;;;;;6.53;4.80;;;19.20;94.40;;;;;;4982532;28;21091;-72
2023/10/01 00:05:24;;;;;;;5.20;4.70;;;19.20;94.40;;;;;;4964886;28;20418;-72
2023/10/01 00:07:56;;;;;;;5.40;4.60;;;19.20;94.40;;;;;;4949479;28;20883;-73
2023/10/01 00:10:23;;;;;;;5.60;4.80;;;19.10;94.40;;;;;;4965741;28;20414;-72
2023/10/01 00:12:54;;;;;;;5.93;4.97;;;19.10;94.80;;;;;;4949456;28;21355;-73
2023/10/01 00:15:24;;;;;;;4.90;4.27;;;19.10;94.40;;;;;;4982572;28;21022;-72
2023/10/01 00:17:51;;;;;;;5.03;4.63;;;19.10;94.40;;;;;;4964842;28;20438;-72
2023/10/01 00:20:29;;;;;;;7.23;4.63;;;19.10;94.40;;;;;;4948766;28;20437;-72
2023/10/01 00:23:00;;;;;;;5.30;4.20;;;19.10;94.40;;;;;;4949048;28;20421;-72
2023/10/01 00:25:30;;;;;;;5.27;4.77;;;19.10;94.40;;;;;;4965159;28;20424;-73
2023/10/01 00:28:00;;;;;;;4.77;4.10;;;19.10;94.40;;;;;;4949377;28;20463;-73
2023/10/01 00:30:31;;;;;;;5.87;4.50;;;19.10;94.40;;;;;;4933499;28;20449;-72
2023/10/01 00:33:10;;;;;;;6.73;4.77;;;19.00;94.40;;;;;;4965830;28;20936;-72
2023/10/01 00:35:39;;;;;;;5.80;5.00;;;19.00;94.40;;;;;;4964826;28;20893;-72
2023/10/01 00:38:07;;;;;;;4.60;4.03;;;19.10;94.50;;;;;;4964859;28;20422;-73
2023/10/01 00:40:40;;;;;;;5.70;4.40;;;19.10;94.50;;;;;;4950151;28;20769;-72
2023/10/01 00:43:06;;;;;;;5.77;4.97;;;19.10;94.50;;;;;;4949261;28;20503;-72
2023/10/01 00:45:32;;;;;;;6.57;4.40;;;19.00;94.40;;;;;;4965316;28;21137;-72
2023/10/01 00:48:14;;;;;;;4.53;4.10;;;19.10;94.50;;;;;;4982652;28;20181;-73
2023/10/01 00:50:41;;;;;;;8.63;4.93;;;19.00;94.40;;;;;;4964884;28;20460;-72
2023/10/01 00:53:10;;;;;;;6.30;4.70;;;19.00;94.40;;;;;;4933282;28;20432;-72
2023/10/01 00:55:37;;;;;;;5.90;5.07;;;19.00;94.40;;;;;;4965044;28;20472;-73
2023/10/01 00:58:04;;;;;;;7.50;5.13;;;19.00;94.50;;;;;;4949310;28;20429;-72
2023/10/01 01:00:31;;;;;;;5.67;5.17;;;18.90;94.40;;;;;;4933031;28;20460;-72
2023/10/01 01:02:57;;;;;;;7.27;5.30;;;19.00;94.50;;;;;;4949190;28;20417;-71
2023/10/01 01:05:28;;;;;;;6.33;5.60;;;19.00;94.50;;;;;;4949616;28;20430;-73
2023/10/01 01:08:00;;;;;;;5.33;4.83;;;19.00;94.50;;;;;;4965646;28;20430;-72
2023/10/01 01:10:31;;;;;;;8.23;6.07;;;19.00;94.50;;;;;;4966074;28;20599;-72
2023/10/01 01:12:58;;;;;;;6.00;4.33;;;18.90;94.40;;;;;;4984263;28;20441;-72
2023/10/01 01:15:26;;;;;;;5.17;4.67;;;18.90;94.50;;;;;;4954081;28;20441;-73
2023/10/01 01:17:53;;;;;;;5.53;4.83;;;18.90;94.60;;;;;;4954297;28;20436;-72
2023/10/01 01:20:20;;;;;;;6.90;5.07;;;18.90;94.50;;;;;;4954307;28;20817;-72
2023/10/01 01:23:09;;;;;;;5.20;4.33;;;18.90;94.40;;;;;;4970398;28;20818;-72
2023/10/01 01:25:35;;;;;;;6.50;5.10;;;18.90;94.50;;;;;;4970265;28;20457;-72
2023/10/01 01:28:01;;;;;;;7.30;4.60;;;18.90;94.50;;;;;;4988597;28;20420;-72
2023/10/01 01:30:29;;;;;;;5.70;5.10;;;18.90;94.50;;;;;;4938876;28;20799;-72
2023/10/01 01:32:57;;;;;;;6.30;5.23;;;18.90;94.50;;;;;;4969859;28;20429;-73
2023/10/01 01:35:29;;;;;;;7.03;4.80;;;18.90;94.50;;;;;;4969651;28;20421;-74
2023/10/01 01:38:01;;;;;;;6.60;4.93;;;18.90;94.50;;;;;;4954651;28;20449;-74
2023/10/01 01:40:36;;;;;;;5.87;5.33;;;18.90;94.50;;;;;;4952953;28;20441;-74
2023/10/01 01:43:15;;;;;;;7.80;5.47;;;18.80;94.40;;;;;;4952764;28;20491;-74
2023/10/01 01:45:44;;;;;;;6.53;4.80;;;18.90;94.50;;;;;;4968981;28;20450;-74
2023/10/01 01:50:58;;;;;;;6.83;4.80;;;18.90;94.50;;;;;;4952858;28;20453;-74
2023/10/01 01:53:34;;;;;;;6.07;5.20;;;18.80;94.50;;;;;;4969190;28;20545;-73
2023/10/01 01:56:08;;;;;;;6.63;5.43;;;18.80;94.50;;;;;;4952980;28;20476;-74
2023/10/01 01:58:35;;;;;;;6.80;5.10;;;18.80;94.50;;;;;;4953131;28;20439;-74
2023/10/01 02:01:08;;;;;;;6.37;5.70;;;18.80;94.50;;;;;;4952921;28;20487;-73
2023/10/01 02:03:44;;;;;;;5.73;4.97;;;18.80;94.50;;;;;;4952521;28;20959;-73
2023/10/01 02:06:10;;;;;;;6.53;5.13;;;18.80;94.50;;;;;;4968573;28;20460;-73
2023/10/01 02:08:49;;;;;;;5.17;4.60;;;18.80;94.50;;;;;;4985894;28;20453;-73
2023/10/01 02:11:22;;;;;;;5.70;5.10;;;18.70;94.50;;;;;;4984650;28;20445;-74
2023/10/01 02:13:51;;;;;;;6.60;5.60;;;18.70;94.50;;;;;;4952803;28;20539;-74
2023/10/01 02:16:30;;;;;;;5.80;5.20;;;18.80;94.50;;;;;;4985285;28;20476;-74
2023/10/01 02:21:52;;;;;;;7.20;5.60;;;18.80;94.50;;;;;;4969482;28;20413;-74
2023/10/01 02:24:23;;;;;;;6.80;5.10;;;18.70;94.50;;;;;;4985572;28;20462;-74
2023/10/01 02:26:59;;;;;;;8.03;5.57;;;18.70;94.50;;;;;;4969562;28;20436;-74
2023/10/01 02:29:32;;;;;;;6.37;5.40;;;18.70;94.50;;;;;;4953981;28;20444;-74
2023/10/01 02:32:04;;;;;;;5.60;5.00;;;18.70;94.50;;;;;;4954781;28;20594;-74
2023/10/01 02:34:31;;;;;;;7.40;5.50;;;18.70;94.50;;;;;;4970478;28;20815;-74
2023/10/01 02:37:07;;;;;;;7.03;5.43;;;18.70;94.50;;;;;;4970007;28;20479;-74
2023/10/01 02:39:33;;;;;;;6.70;4.67;;;18.70;94.50;;;;;;4967558;28;20477;-73
2023/10/01 02:44:40;;;;;;;7.00;5.23;;;18.60;94.40;;;;;;4966994;28;20721;-75
2023/10/01 02:47:16;;;;;;;6.43;5.37;;;18.70;94.50;;;;;;4950416;28;20457;-75
2023/10/01 02:49:53;;;;;;;5.23;4.73;;;18.60;94.50;;;;;;5016187;23;20514;-70
2023/10/01 02:52:26;;;;;;;6.73;5.33;;;18.70;94.50;;;;;;4893335;29;20436;-70
2023/10/01 02:54:54;;;;;;;6.33;5.70;;;18.70;94.50;;;;;;4934773;29;20909;-70
2023/10/01 02:57:24;;;;;;;5.53;5.00;;;18.60;94.50;;;;;;4904423;29;20470;-70
2023/10/01 03:02:39;;;;;;;5.83;5.23;;;18.60;94.50;;;;;;4926599;29;21145;-70
2023/10/01 03:05:08;;;;;;;5.10;4.60;;;18.60;94.50;;;;;;4888479;29;20574;-70
2023/10/01 03:07:40;;;;;;;6.50;5.00;;;18.60;94.50;;;;;;4918655;29;20490;-70
2023/10/01 03:10:15;;;;;;;5.67;4.33;;;18.60;94.50;;;;;;4892891;29;20502;-70
2023/10/01 03:12:42;;;;;;;8.30;5.43;;;18.60;94.50;;;;;;4908148;29;20523;-70
2023/10/01 03:17:55;;;;;;;6.60;4.80;;;18.60;94.50;;;;;;4892435;29;20771;-70
2023/10/01 03:23:33;;;;;;;5.90;4.90;;;18.60;94.50;;;;;;4935839;28;20427;-70
2023/10/01 03:26:07;;;;;;;5.10;4.60;;;18.60;94.50;;;;;;4910793;29;20434;-71
2023/10/01 03:31:28;;;;;;;6.83;4.90;;;18.60;94.50;;;;;;4903404;29;20448;-70
2023/10/01 03:33:59;;;;;;;5.00;4.50;;;18.50;94.50;;;;;;4915701;29;20966;-70
2023/10/01 03:36:25;;;;;;;6.27;5.40;;;18.50;94.50;;;;;;4905714;29;20492;-70
2023/10/01 03:39:23;;;;;;;6.83;5.17;;;18.50;94.50;;;;;;4935963;29;20820;-70
2023/10/01 03:44:58;;;;;;;4.90;4.40;;;18.50;94.50;;;;;;4914985;29;21102;-70
2023/10/01 03:47:27;;;;;;;5.10;4.30;;;18.50;94.50;;;;;;4925789;29;20442;-70
2023/10/01 03:49:57;;;;;;;9.00;5.13;;;18.50;94.50;;;;;;4894707;29;20518;-70
2023/10/01 03:52:29;;;;;;;5.27;4.77;;;18.50;94.50;;;;;;4917794;29;20453;-70
2023/10/01 03:57:51;;;;;;;5.30;4.23;;;18.50;94.50;;;;;;4912396;29;20475;-70
2023/10/01 04:00:32;;;;;;;6.90;4.97;;;18.50;94.50;;;;;;4909203;29;20500;-70
2023/10/01 04:02:58;;;;;;;5.40;5.00;;;18.50;94.50;;;;;;4909832;28;21046;-70
2023/10/01 04:05:37;;;;;;;6.60;4.87;;;18.50;94.50;;;;;;4903053;29;20446;-70
2023/10/01 04:08:08;;;;;;;5.33;4.40;;;18.50;94.50;;;;;;4926045;29;20540;-70
2023/10/01 04:10:58;;;;;;;4.97;4.33;;;18.50;94.50;;;;;;4907918;29;20801;-70
2023/10/01 04:13:24;;;;;;;7.40;4.83;;;18.50;94.50;;;;;;4917105;29;20818;-70
2023/10/01 04:15:57;;;;;;;5.43;4.80;;;18.50;94.50;;;;;;4925044;29;20514;-70
2023/10/01 04:18:28;;;;;;;5.77;4.50;;;18.50;94.50;;;;;;4943007;29;20429;-70
2023/10/01 04:23:32;;;;;;;5.43;4.77;;;18.50;94.50;;;;;;4941890;28;20517;-70
2023/10/01 04:26:06;;;;;;;6.10;4.60;;;18.50;94.50;;;;;;4925488;29;20824;-70
2023/10/01 04:28:36;;;;;;;6.97;5.40;;;18.40;94.40;;;;;;4942833;29;20489;-70
2023/10/01 04:31:09;;;;;;;5.27;4.27;;;18.40;94.40;;;;;;4941317;29;20845;-70
2023/10/01 04:33:36;;;;;;;5.47;4.90;;;18.40;94.40;;;;;;4924873;29;20508;-70
2023/10/01 04:36:10;;;;;;;4.60;4.17;;;18.50;94.50;;;;;;4903259;29;20472;-70
2023/10/01 04:38:43;;;;;;;5.10;4.60;;;18.40;94.40;;;;;;4931162;29;20430;-70
2023/10/01 04:41:15;;;;;;;6.70;4.50;;;18.40;94.40;;;;;;4925419;29;20913;-69
2023/10/01 04:43:51;;;;;;;6.03;5.13;;;18.40;94.40;;;;;;4924843;29;20544;-69
2023/10/01 04:46:30;;;;;;;5.63;4.67;;;18.40;94.30;;;;;;4909635;29;20478;-70
2023/10/01 04:49:07;;;;;;;5.03;3.90;;;18.40;94.30;;;;;;4871028;29;1109048;-70
2023/10/01 04:51:47;;;;;;;7.13;5.00;;;18.40;94.40;;;;;;4941102;29;20192;-70
2023/10/01 04:54:21;;;;;;;5.53;4.93;;;18.40;94.40;;;;;;4943138;28;20458;-70
2023/10/01 04:56:50;;;;;;;6.00;4.40;;;18.30;94.30;;;;;;4925306;29;20984;-70
2023/10/01 04:59:17;;;;;;;4.53;4.10;;;18.30;94.30;;;;;;4942720;29;20532;-70
2023/10/01 05:01:47;;;;;;;6.10;4.60;;;18.30;94.30;;;;;;4942151;29;20435;-70
2023/10/01 05:04:14;;;;;;;5.00;4.50;;;18.30;94.30;;;;;;4935315;28;20874;-70
2023/10/01 05:06:43;;;;;;;5.40;4.70;;;18.30;94.30;;;;;;4938252;29;20456;-70
2023/10/01 05:09:15;;;;;;;6.20;5.27;;;18.30;94.30;;;;;;4930567;29;20955;-70
2023/10/01 05:11:43;;;;;;;5.90;4.77;;;18.30;94.30;;;;;;4934554;29;20461;-70
2023/10/01 05:14:17;;;;;;;6.07;4.93;;;18.10;94.20;;;;;;4924853;29;20462;-70
2023/10/01 05:16:47;;;;;;;5.13;4.50;;;18.30;94.30;;;;;;4909337;29;21147;-70
2023/10/01 05:19:19;;;;;;;7.43;5.00;;;18.30;94.30;;;;;;4924444;29;20461;-70
2023/10/01 05:21:50;;;;;;;5.20;4.03;;;18.30;94.30;;;;;;4942999;29;21016;-70
2023/10/01 05:24:36;;;;;;;4.60;3.73;;;18.30;94.30;;;;;;4924960;29;20450;-69
2023/10/01 05:27:09;;;;;;;7.97;4.20;;;18.30;94.30;;;;;;4909696;29;20483;-70
2023/10/01 05:29:39;;;;;;;8.40;5.40;;;18.30;94.30;;;;;;4942054;29;20470;-69
2023/10/01 05:32:13;;;;;;;6.40;4.60;;;18.30;94.30;;;;;;4909252;29;20462;-70
2023/10/01 05:34:45;;;;;;;6.63;4.63;;;18.30;94.30;;;;;;4942453;28;20451;-70
2023/10/01 05:37:24;;;;;;;6.30;4.70;;;18.20;94.30;;;;;;4921296;29;20819;-70
2023/10/01 05:40:00;;;;;;;5.67;4.80;;;18.30;94.40;;;;;;4914297;29;20454;-70
2023/10/01 05:42:31;;;;;;;4.90;4.40;;;18.20;94.30;;;;;;4924190;29;20434;-70
2023/10/01 05:44:59;;;;;;;5.23;4.47;;;18.20;94.40;;;;;;4924117;29;20474;-70
2023/10/01 05:47:50;;;;;;;7.50;4.30;;;18.20;94.30;;;;;;4909059;29;20442;-71
2023/10/01 05:50:18;;;;;;;5.50;4.70;;;18.20;94.30;;;;;;4915582;29;20493;-70
2023/10/01 05:52:45;;;;;;;8.20;4.40;;;18.20;94.40;;;;;;4912260;29;20854;-70
2023/10/01 05:55:15;;;;;;;5.40;4.50;;;18.20;94.30;;;;;;4883705;29;20469;-69
2023/10/01 05:57:50;;;;;;;5.73;4.23;;;18.20;94.30;;;;;;4888691;29;20515;-70
2023/10/01 06:00:25;;;;;;;8.80;5.00;;;18.20;94.30;;;;;;4892273;29;20510;-72
2023/10/01 06:03:02;;;;;;;5.00;4.23;;;18.20;94.30;;;;;;4911341;29;20435;-72
2023/10/01 06:05:49;;;;;;;5.87;4.40;;;18.20;94.30;;;;;;4925764;29;21113;-70
2023/10/01 06:08:25;;;;;;;6.37;4.87;;;18.20;94.30;;;;;;4925163;29;20459;-70
2023/10/01 06:11:13;;;;;;;7.03;4.80;;;18.10;94.30;;;;;;4908860;29;20559;-72
2023/10/01 06:13:51;;;;;;;4.83;3.83;;;18.10;94.30;;;;;;4923667;29;20486;-70
2023/10/01 06:16:25;;;;;;;6.73;4.40;;;18.10;94.30;;;;;;4912821;29;20493;-72
2023/10/01 06:18:56;;;;;;;6.40;5.03;;;18.10;94.20;;;;;;4924097;29;20537;-72
2023/10/01 06:21:34;;;;;;;6.23;4.60;;;18.10;94.30;;;;;;4925060;29;20449;-69
2023/10/01 06:24:10;;;;;;;6.70;4.80;;;18.10;94.30;;;;;;4908478;29;20457;-72
2023/10/01 06:26:50;;;;;;;4.50;4.10;;;18.10;94.30;;;;;;4908349;29;20878;-72
2023/10/01 06:29:17;;;;;;;6.83;4.80;;;18.10;94.30;;;;;;4907656;29;20481;-71
2023/10/01 06:31:48;;;;;;;5.30;3.80;;;18.10;94.30;;;;;;4909583;29;20542;-71
2023/10/01 06:34:21;;;;;;;5.77;4.30;;;18.10;94.30;;;;;;4907835;29;20863;-71
2023/10/01 06:36:58;;;;;;;5.60;4.40;;;18.10;94.30;;;;;;4924312;29;20569;-71
2023/10/01 06:39:33;;;;;;;4.80;4.27;;;18.10;94.30;;;;;;4919883;29;20458;-72
2023/10/01 06:44:50;;;;;;;5.70;4.40;;;18.10;94.30;;;;;;4924543;29;20451;-70
2023/10/01 06:47:22;;;;;;;4.50;3.67;;;18.10;94.30;;;;;;4926745;29;20629;-70
2023/10/01 06:52:41;;;;;;;5.90;4.53;;;18.10;94.40;;;;;;4903243;29;20477;-72
2023/10/01 06:55:30;;;;;;;6.40;4.40;;;18.10;94.40;;;;;;4906090;29;20453;-70
2023/10/01 06:58:00;;;;;;;6.90;4.47;;;18.10;94.30;;;;;;4923297;29;20451;-70
2023/10/01 07:00:33;;;;;;;5.07;4.40;;;17.90;94.20;;;;;;4938881;29;20542;-70
2023/10/01 07:03:22;;;;;;;6.37;4.40;;;18.10;94.40;;;;;;4923285;29;20460;-70
2023/10/01 07:05:55;;;;;;;5.57;4.33;;;18.10;94.40;;;;;;4941676;29;20441;-70
2023/10/01 07:08:37;;;;;;;6.67;4.60;;;18.00;94.40;;;;;;4935696;29;20453;-70
2023/10/01 07:11:18;;;;;;;8.03;4.70;;;18.00;94.40;;;;;;4928495;29;20433;-70
2023/10/01 07:13:47;;;;;;;9.57;5.07;;;18.10;94.50;;;;;;4935669;28;20453;-70
2023/10/01 07:16:35;;;;;;;6.10;4.60;;;18.10;94.40;;;;;;4927322;29;20478;-70
2023/10/01 07:19:13;;;;;;;5.07;4.07;;;18.10;94.50;;;;;;4892859;29;20934;-71
2023/10/01 07:21:45;;;;;;;6.00;4.93;;;18.00;94.50;;;;;;4941524;29;20767;-70
2023/10/01 07:24:18;;;;;;;6.40;4.07;;;18.00;94.50;;;;;;4910020;29;20450;-70
2023/10/01 07:26:46;;;;;;;6.50;4.93;;;18.00;94.50;;;;;;4918067;29;20431;-70
2023/10/01 07:29:13;;;;;;;7.13;5.23;;;18.00;94.50;;;;;;4911925;29;20890;-70
2023/10/01 07:31:39;;;;;;;6.57;4.70;;;18.00;94.50;;;;;;4900833;29;20856;-70
2023/10/01 07:34:16;;;;;;;5.77;4.60;;;18.00;94.50;;;;;;4916376;29;20458;-70
2023/10/01 07:36:42;;;;;;;5.67;4.80;;;18.00;94.50;;;;;;4919424;29;20466;-70
2023/10/01 07:39:13;;;;;;;10.13;5.20;;;18.00;94.50;;;;;;4913605;29;21188;-70
2023/10/01 07:41:44;;;;;;;5.50;4.57;;;18.00;94.80;;;;;;4916637;29;20469;-70
2023/10/01 07:44:14;;;;;;;7.13;5.00;;;18.00;94.50;;;;;;4925263;29;20690;-70
2023/10/01 07:46:46;;;;;;;8.27;5.13;;;18.00;94.50;;;;;;4885866;29;20457;-71
2023/10/01 07:49:18;;;;;;;6.10;4.10;;;18.00;94.50;;;;;;4905594;29;21505;-70
2023/10/01 07:51:51;;;;;;;5.67;4.50;;;18.00;94.50;;;;;;4927429;28;20451;-70
2023/10/01 07:54:22;;;;;;;7.40;4.70;;;18.00;94.60;;;;;;4903667;29;20595;-71
2023/10/01 07:56:56;;;;;;;7.03;4.83;;;18.00;94.50;;;;;;4906466;29;20503;-71
2023/10/01 07:59:35;;;;;;;5.57;4.53;;;18.00;94.60;;;;;;4911386;29;20729;-71
2023/10/01 08:02:09;;;;;;;5.87;4.70;;;18.00;94.60;;;;;;4890965;29;20454;-70
2023/10/01 08:07:17;;;;;;;5.20;4.37;;;18.00;94.60;;;;;;4908182;29;20982;-70
2023/10/01 08:09:51;;;;;;;6.53;4.63;;;18.00;94.70;;;;;;4920063;29;20444;-70
2023/10/01 08:12:28;;;;;;;7.47;5.80;;;18.00;94.60;;;;;;4924886;29;20421;-70
2023/10/01 08:15:57;;;;;;;7.70;5.10;;;18.00;94.70;;;;;;4920321;29;20463;-71
2023/10/01 08:17:49;;;;;;;6.07;4.50;;;18.00;94.70;;;;;;4915796;29;20630;-71
2023/10/01 08:20:32;;;;;;;6.37;4.87;;;18.00;94.70;;;;;;4923410;29;20832;-71
2023/10/01 08:23:23;;;;;;;7.63;4.60;;;18.00;94.70;;;;;;4882945;29;20467;-71
2023/10/01 08:25:54;;;;;;;6.40;4.90;;;18.10;94.80;;;;;;4912181;29;20433;-73
2023/10/01 08:28:43;;;;;;;8.50;5.57;;;18.10;94.80;;;;;;4909585;29;20436;-72
2023/10/01 08:31:43;;;;;;;7.83;5.47;;;18.00;94.80;;;;;;4892770;29;20510;-72
2023/10/01 08:34:22;;;;;;;7.40;4.93;;;18.00;94.90;;;;;;4908702;29;20442;-72
2023/10/01 08:36:56;;;;;;;9.63;5.07;;;18.00;94.90;;;;;;4909070;29;20472;-70
2023/10/01 08:39:35;;;;;;;6.80;4.77;;;18.10;94.90;;;;;;4906239;29;20537;-71
2023/10/01 08:42:08;;;;;;;5.97;4.77;;;18.10;94.90;;;;;;4892175;29;21249;-71
2023/10/01 08:44:50;;;;;;;9.07;5.17;;;18.10;94.80;;;;;;4887697;29;20471;-71
2023/10/01 08:47:27;;;;;;;6.43;5.03;;;18.10;94.90;;;;;;4911762;29;20450;-72
2023/10/01 08:50:17;;;;;;;6.10;4.63;;;18.10;95.00;;;;;;4905140;29;20460;-71
2023/10/01 08:52:57;;;;;;;7.70;4.90;;;18.10;95.00;;;;;;4903564;29;20548;-72
2023/10/01 08:55:39;;;;;;;8.57;5.70;;;18.10;95.10;;;;;;4877472;29;20938;-71
2023/10/01 09:00:56;;;;;;;7.67;5.90;;;18.10;95.20;;;;;;4915658;29;20426;-71
2023/10/01 09:03:28;;;;;;;6.10;4.87;;;18.10;95.20;;;;;;4918767;29;20464;-71
2023/10/01 09:06:24;;;;;;;6.30;4.80;;;18.20;95.30;;;;;;4908582;29;20474;-71
2023/10/01 09:08:55;;;;;;;7.60;5.53;;;18.10;95.30;;;;;;4903841;29;20473;-72
2023/10/01 09:11:42;;;;;;;10.20;5.77;;;18.20;95.40;;;;;;4900572;29;20435;-70
2023/10/01 09:14:17;;;;;;;7.17;4.73;;;18.20;95.30;;;;;;4906409;29;20446;-70
2023/10/01 09:16:45;;;;;;;6.20;4.70;;;18.20;95.30;;;;;;4897289;29;20485;-70
2023/10/01 09:19:37;;;;;;;5.47;4.90;;;18.20;95.30;;;;;;4904704;29;21231;-70
2023/10/01 09:22:35;;;;;;;7.40;5.03;;;18.20;95.30;;;;;;4907585;29;20973;-70
2023/10/01 09:25:25;;;;;;;7.30;5.80;;;18.30;95.40;;;;;;4907890;29;21005;-72
2023/10/01 09:28:19;;;;;;;7.20;5.27;;;18.30;95.40;;;;;;4941793;28;20455;-72
2023/10/01 09:31:04;;;;;;;7.93;5.60;;;18.30;95.40;;;;;;4903321;29;20446;-72
2023/10/01 09:33:32;;;;;;;7.83;5.20;;;18.30;95.40;;;;;;4903716;29;20565;-75
2023/10/01 09:36:00;;;;;;;11.03;5.93;;;18.40;95.40;;;;;;4895063;29;20472;-73
2023/10/01 09:38:32;;;;;;;8.80;6.43;;;18.40;95.40;;;;;;4906894;29;20447;-73
2023/10/01 09:41:01;;;;;;;7.47;5.63;;;18.40;95.60;;;;;;4927855;29;20951;-73
2023/10/01 09:43:34;;;;;;;7.57;5.47;;;18.50;95.50;;;;;;4903930;29;20547;-72
2023/10/01 09:46:06;;;;;;;6.50;5.13;;;18.50;95.50;;;;;;4911924;29;20473;-72
2023/10/01 09:48:48;;;;;;;7.73;6.23;;;18.50;95.50;;;;;;4916789;29;20469;-74
2023/10/01 09:51:14;;;;;;;10.10;6.00;;;18.50;95.60;;;;;;4910539;29;20522;-74
2023/10/01 09:53:51;;;;;;;8.23;5.50;;;18.60;95.60;;;;;;4916395;29;21223;-74
2023/10/01 09:59:26;;;;;;;7.17;5.60;;;18.60;95.50;;;;;;4893068;29;20442;-74
2023/10/01 10:02:02;;;;;;;11.77;6.70;;;18.60;95.70;;;;;;4943352;29;20418;-74
2023/10/01 10:04:34;;;;;;;7.73;5.23;;;18.60;95.70;;;;;;4939746;28;20823;-74
2023/10/01 10:07:01;;;;;;;7.83;5.50;;;18.70;95.70;;;;;;4942669;29;20445;-73
2023/10/01 10:09:30;;;;;;;9.17;6.43;;;18.70;95.80;;;;;;4936172;29;20423;-74
2023/10/01 10:12:07;;;;;;;9.93;6.27;;;18.70;95.80;;;;;;4900080;29;20447;-74
2023/10/01 10:14:33;;;;;;;9.10;6.03;;;18.70;95.80;;;;;;4919623;29;21058;-74
2023/10/01 10:17:18;;;;;;;8.50;5.60;;;18.80;95.90;;;;;;4901311;29;20474;-74
2023/10/01 10:20:25;;;;;;;9.60;6.57;;;18.80;95.90;;;;;;4927450;29;20462;-74
2023/10/01 10:23:30;;;;;;;9.27;6.67;;;18.80;95.90;;;;;;4922888;29;20450;-74
2023/10/01 10:26:43;;;;;;;7.73;5.60;;;18.90;96.10;;;;;;4880199;29;20540;-74
2023/10/01 10:29:13;;;;;;;9.43;6.10;;;18.90;96.00;;;;;;4905351;29;20447;-73
2023/10/01 10:32:01;;;;;;;10.10;6.10;;;18.90;96.10;;;;;;4902539;29;20431;-73
2023/10/01 10:34:36;;;;;;;11.57;6.60;;;18.90;96.20;;;;;;4896120;29;20554;-73
2023/10/01 10:43:07;;;;;;;8.57;6.00;;;19.00;96.40;;;;;;4926304;29;20466;-73
2023/10/01 10:45:45;;;;;;;9.27;6.67;;;19.10;96.40;;;;;;4901653;29;20922;-73
2023/10/01 10:48:24;;;;;;;10.20;6.73;;;19.10;96.50;;;;;;4922620;29;20938;-73
2023/10/01 10:50:56;;;;;;;11.37;6.60;;;19.10;96.40;;;;;;4943379;29;20444;-73
2023/10/01 10:53:29;;;;;;;10.73;6.47;;;19.20;96.50;;;;;;4926200;29;20826;-73
2023/10/01 10:56:00;;;;;;;12.00;7.60;;;19.20;96.50;;;;;;4943255;29;20521;-73
2023/10/01 10:58:28;;;;;;;8.00;6.50;;;19.20;96.50;;;;;;4967580;23;20619;-80
2023/10/01 11:00:55;;;;;;;10.60;7.17;;;19.30;96.50;;;;;;4953930;28;20465;-82
2023/10/01 11:03:40;;;;;;;10.30;6.10;;;19.30;96.50;;;;;;4970356;28;21115;-82
2023/10/01 11:06:15;;;;;;;9.17;6.57;;;19.30;96.60;;;;;;4951855;29;20467;-82
2023/10/01 11:08:50;;;;;;;9.83;6.23;;;19.30;96.60;;;;;;4968153;28;20438;-82
2023/10/01 11:11:41;;;;;;;10.00;7.10;;;19.40;96.80;;;;;;4967512;28;20511;-81
2023/10/01 11:14:16;;;;;;;8.93;6.20;;;19.40;96.70;;;;;;4989090;28;20484;-82
2023/10/01 11:16:44;;;;;;;12.27;8.30;;;19.40;96.90;;;;;;4980308;28;20497;-83
2023/10/01 11:19:12;;;;;;;11.60;7.13;;;19.50;96.90;;;;;;4977733;28;20864;-82
2023/10/01 11:21:55;;;;;;;10.80;6.87;;;19.50;96.90;;;;;;4977681;28;20451;-83
2023/10/01 11:24:47;;;;;;;8.93;6.50;;;19.50;96.90;;;;;;4973588;28;20453;-83
2023/10/01 11:30:13;;;;;;;11.30;6.80;;;19.50;97.00;;;;;;4981281;28;20502;-82
2023/10/01 11:32:58;;;;;;;10.03;6.60;;;19.60;97.00;;;;;;4955950;28;20441;-82
2023/10/01 11:35:35;;;;;;;12.30;6.60;;;19.60;97.10;;;;;;4959932;28;20488;-82
2023/10/01 11:38:13;;;;;;;11.50;7.13;;;19.60;97.00;;;;;;4979328;28;20439;-83
2023/10/01 11:43:38;;;;;;;10.50;6.83;;;19.70;97.20;;;;;;4970070;28;20518;-81
2023/10/01 11:46:19;;;;;;;8.83;6.53;;;19.80;97.40;;;;;;4976541;28;20516;-82
2023/10/01 11:48:56;;;;;;;12.60;8.17;;;19.70;97.50;;;;;;4952697;28;20812;-81
2023/10/01 11:57:35;;;;;;;10.13;6.93;;;19.80;97.60;;;;;;4964188;28;20490;-82
2023/10/01 12:00:03;;;;;;;11.10;6.47;;;19.80;97.70;;;;;;4953536;28;20486;-82
2023/10/01 12:02:43;;;;;;;12.57;6.93;;;19.90;97.90;;;;;;4969385;28;20469;-82
2023/10/01 12:05:16;;;;;;;12.30;7.30;;;20.00;97.80;;;;;;4989184;28;21621;-83
2023/10/01 12:07:44;;;;;;;10.87;7.60;;;19.90;97.90;;;;;;4971799;28;20438;-82
2023/10/01 12:10:32;;;;;;;9.90;7.20;;;20.00;97.90;;;;;;4955686;28;20529;-83
2023/10/01 12:13:01;;;;;;;13.73;7.80;;;20.00;97.90;;;;;;4955561;28;20977;-83
2023/10/01 12:15:34;;;;;;;11.90;7.70;;;20.00;97.90;;;;;;4936726;28;20533;-82
2023/10/01 12:21:00;;;;;;;12.50;7.80;;;20.10;97.90;;;;;;4971647;28;20501;-83
2023/10/01 12:23:26;;;;;;;13.00;7.13;;;20.10;98.00;;;;;;4989531;28;20427;-83
2023/10/01 12:28:19;;;;;;;9.90;7.30;;;20.20;98.00;;;;;;4971907;28;20192;-82
2023/10/01 12:30:57;;;;;;;11.70;8.33;;;20.10;97.80;;;;;;4971431;28;20439;-82
2023/10/01 12:33:24;;;;;;;13.00;7.67;;;20.20;98.00;;;;;;4995974;28;20433;-83
2023/10/01 12:35:52;;;;;;;12.17;7.40;;;20.20;98.00;;;;;;4955343;28;20883;-82
2023/10/01 12:40:52;;;;;;;10.73;7.20;;;20.20;98.00;;;;;;4955379;28;21225;-83
2023/10/01 12:43:39;;;;;;;12.87;7.90;;;20.30;98.00;;;;;;4955045;28;20919;-82
2023/10/01 12:46:12;;;;;;;11.00;7.83;;;20.30;97.90;;;;;;4964156;28;20464;-83
2023/10/01 12:49:14;;;;;;;10.87;7.40;;;20.30;97.80;;;;;;4971343;28;20505;-82
2023/10/01 12:51:33;;;;;;;13.20;8.67;;;20.30;97.90;;;;;;4954958;28;20459;-82
2023/10/01 12:54:06;;;;;;;15.80;9.10;;;20.40;97.90;;;;;;4939331;28;20496;-83
2023/10/01 12:56:44;;;;;;;11.93;7.70;;;20.50;97.90;;;;;;4988592;28;20576;-82
2023/10/01 12:59:19;;;;;;;15.27;8.27;;;20.50;97.90;;;;;;4956835;28;20457;-82
2023/10/01 13:01:51;;;;;;;11.80;8.27;;;20.50;97.70;;;;;;4955185;28;20412;-82
2023/10/01 13:04:32;;;;;;;9.73;7.17;;;20.50;97.70;;;;;;4952488;28;20447;-82
2023/10/01 13:07:04;;;;;;;13.77;7.60;;;20.50;97.60;;;;;;4987196;28;20445;-82
2023/10/01 13:12:18;;;;;;;13.47;8.80;;;20.60;97.50;;;;;;4992053;28;20436;-83
2023/10/01 13:15:14;;;;;;;13.27;8.70;;;20.60;97.30;;;;;;4992134;28;20441;-83
2023/10/01 13:17:43;;;;;;;14.47;8.00;;;20.60;97.40;;;;;;4975496;28;20661;-81
2023/10/01 13:20:22;;;;;;;12.03;8.20;;;20.60;97.20;;;;;;5001021;28;20425;-83
2023/10/01 13:22:59;;;;;;;11.70;7.87;;;20.70;97.30;;;;;;4984385;28;20535;-82
2023/10/01 13:25:28;;;;;;;14.30;9.37;;;20.70;97.40;;;;;;4959061;28;20521;-83
2023/10/01 13:28:04;;;;;;;10.83;8.00;;;20.60;97.70;;;;;;4975468;28;20434;-83
2023/10/01 13:33:25;;;;;;;14.20;8.13;;;20.70;97.40;;;;;;4975223;28;20445;-81
2023/10/01 13:35:58;;;;;;;13.03;8.23;;;20.70;97.30;;;;;;4974754;28;20471;-82
2023/10/01 13:38:27;;;;;;;12.03;8.57;;;20.90;97.40;;;;;;4974925;28;20438;-82
2023/10/01 14:08:45;;;;;;;16.17;8.93;;;21.00;96.80;;;;;;4974991;28;20887;-83
2023/10/01 14:11:17;;;;;;;15.80;9.70;;;21.00;96.70;;;;;;4949336;28;20510;-83
2023/10/01 14:13:43;;;;;;;14.07;9.57;;;21.00;96.50;;;;;;4938745;28;20503;-83
2023/10/01 14:16:12;;;;;;;15.50;10.20;;;21.10;96.70;;;;;;4943326;28;20476;-82
2023/10/01 14:18:53;;;;;;;11.47;8.47;;;21.00;96.60;;;;;;4949546;28;20513;-82
2023/10/01 14:21:23;;;;;;;18.40;9.47;;;21.00;96.50;;;;;;4954369;28;20448;-84
2023/10/01 14:23:51;;;;;;;14.20;9.67;;;21.10;96.60;;;;;;4964519;28;20427;-81
2023/10/01 14:26:33;;;;;;;14.57;9.60;;;21.10;96.60;;;;;;4952526;28;20535;-82
2023/10/01 14:28:59;;;;;;;15.17;9.53;;;21.10;96.50;;;;;;4955110;28;20531;-82
2023/10/01 14:34:23;;;;;;;16.23;9.73;;;21.10;96.30;;;;;;4931954;28;20456;-83
2023/10/01 14:37:00;;;;;;;16.70;10.33;;;21.10;96.20;;;;;;4980732;28;20487;-82
2023/10/01 14:39:34;;;;;;;17.07;10.67;;;21.20;96.30;;;;;;4971537;28;20437;-82
2023/10/01 14:42:00;;;;;;;13.77;9.43;;;21.20;96.50;;;;;;4955318;28;20429;-82
2023/10/01 14:44:29;;;;;;;16.00;10.07;;;21.20;96.40;;;;;;4946258;28;20466;-83
2023/10/01 14:46:56;;;;;;;14.60;9.27;;;21.20;96.40;;;;;;4979571;28;20427;-82
2023/10/01 14:49:24;;;;;;;17.73;11.23;;;21.20;96.20;;;;;;4977920;28;20447;-82
2023/10/01 14:51:54;;;;;;;16.10;9.57;;;21.30;96.60;;;;;;4980824;28;20484;-83
2023/10/01 14:54:20;;;;;;;14.50;9.57;;;21.30;96.30;;;;;;4961871;28;20858;-82
2023/10/01 14:56:54;;;;;;;16.43;10.27;;;21.20;96.40;;;;;;4962150;28;20478;-82
2023/10/01 14:59:29;;;;;;;14.10;10.23;;;21.30;96.10;;;;;;4939028;28;20543;-83
2023/10/01 15:01:59;;;;;;;15.20;9.90;;;21.30;96.20;;;;;;4969560;28;20440;-83